Ikarus — SWEW — position and weather

sailwx.info

Track history (hours):
 
Tides and Currents Weather Stations Pressure Air Temp Water Temp Dewpoint Dewpoint Depression Visibility Wind Speed Wind Dir Waves Ship Positions

Ikarus

Last reported at 2014-Sep-20 04:33 UTC. Time now 2014-Sep-20 05:52 UTC.
Position N 43°35' E 010°18'.

Length 200 m; draft 6.7 m.

Type: Ship. MMSI: 239513000.

Date/timePositionNaut miles runAvg speedWind from/ knotsBaromVisibWave heightAir tempDewpointWater temp
2014-Sep-20 04:33N 43°35' E 010°18'0 0.0
2014-Sep-20 03:33N 43°35' E 010°18'0 0.0
2014-Sep-20 02:33N 43°35' E 010°18'0 0.0
2014-Sep-20 01:33N 43°35' E 010°18'0 0.0
2014-Sep-20 00:33N 43°35' E 010°18'0 0.0
2014-Sep-19 23:33N 43°35' E 010°18'0 0.0
2014-Sep-19 22:33N 43°35' E 010°18'0 0.0
2014-Sep-19 21:33N 43°35' E 010°18'0 0.0
2014-Sep-19 20:33N 43°35' E 010°18'0 0.0
2014-Sep-19 19:33N 43°35' E 010°18'0 0.0
2014-Sep-19 18:33N 43°35' E 010°18'0 0.0
2014-Sep-19 17:33N 43°35' E 010°18'0 0.0
2014-Sep-19 16:33N 43°35' E 010°18'0 0.0
2014-Sep-19 15:33N 43°35' E 010°18'0 0.0
2014-Sep-19 14:33N 43°35' E 010°18'0 0.0
2014-Sep-19 13:33N 43°35' E 010°18'0 0.0
2014-Sep-19 12:33N 43°35' E 010°18'0 0.0
2014-Sep-19 11:33N 43°35' E 010°18'0 0.0
2014-Sep-19 10:33N 43°35' E 010°18'0 0.0
2014-Sep-19 09:33N 43°35' E 010°18'0 0.0
2014-Sep-19 08:33N 43°35' E 010°18'0 0.0
2014-Sep-19 07:33N 43°35' E 010°18'0 0.0
2014-Sep-19 06:33N 43°35' E 010°18'0 0.0
2014-Sep-19 05:33N 43°35' E 010°18'0 0.0
2014-Sep-19 04:33N 43°35' E 010°18'0 0.0
2014-Sep-19 03:33N 43°35' E 010°18'0 0.0
2014-Sep-19 02:33N 43°35' E 010°18'0 0.0
2014-Sep-19 01:33N 43°35' E 010°18'0 0.0
2014-Sep-19 00:33N 43°35' E 010°18'0 0.0
2014-Sep-18 23:33N 43°35' E 010°18'0 0.0
2014-Sep-18 22:33N 43°35' E 010°18'0 0.0
2014-Sep-18 21:33N 43°35' E 010°18'0 0.0
2014-Sep-18 20:33N 43°35' E 010°18'1 0.6
2014-Sep-18 19:33N 43°34' E 010°18'9 9.1
2014-Sep-18 18:33N 43°27' E 010°10'1919.1
2014-Sep-18 17:33N 43°18' E 009°47'1919.3
2014-Sep-18 16:33N 43°11' E 009°22'2219.1
2014-Sep-18 15:23N 43°04' E 008°54'7919.5
2014-Sep-18 11:22N 42°37' E 007°13'8319.5
2014-Sep-18 07:07N 42°09' E 005°27'1320.2
2014-Sep-18 06:27N 42°05' E 005°10'14117.3
2014-Sep-17 22:20N 41°22' E 002°11'0 0.0
2014-Sep-17 19:17N 41°22' E 002°11'3 3.4
2014-Sep-17 18:31N 41°19' E 002°10'2019.9
2014-Sep-17 17:31N 41°01' E 002°00'2019.0
2014-Sep-17 16:28N 40°43' E 001°48'2020.2
2014-Sep-17 15:28N 40°25' E 001°36'14220.3
2014-Sep-17 08:28N 38°20' E 000°09'1820.0
2014-Sep-17 07:33N 38°05' W 000°04'2020.2
2014-Sep-17 06:33N 37°48' W 000°18'2020.1
2014-Sep-17 05:33N 37°32' W 000°33'2020.2
2014-Sep-17 04:33N 37°18' W 000°52'2020.1
2014-Sep-17 03:33N 37°05' W 001°11'2120.5
2014-Sep-17 02:33N 36°51' W 001°30'18921.1
2014-Sep-16 17:34N 35°59' W 005°16'221 9.2
2014-Sep-15 17:29N 37°16' W 000°58'1415.5
2014-Sep-15 16:34N 37°26' W 000°45'1615.5
2014-Sep-15 15:32N 37°38' W 000°31'1515.6
2014-Sep-15 14:33N 37°50' W 000°20'1615.7
2014-Sep-15 13:33N 38°04' W 000°10'12715.6
2014-Sep-15 05:22N 39°54' E 001°13'3515.5
2014-Sep-15 03:06N 40°25' E 001°34'815.1
2014-Sep-15 02:33N 40°32' E 001°40'55 6.8
2014-Sep-14 18:26N 41°22' E 002°11'1111.0
2014-Sep-14 17:25N 41°22' E 002°26'1920.0
2014-Sep-14 16:29N 41°28' E 002°49'1918.8
2014-Sep-14 15:27N 41°35' E 003°14'2019.5
2014-Sep-14 14:26N 41°42' E 003°38'2120.2
2014-Sep-14 13:24N 41°50' E 004°04'2218.8
2014-Sep-14 12:13N 41°58' E 004°32'1819.5
2014-Sep-14 11:19N 42°04' E 004°54'3318.5
2014-Sep-14 09:32N 42°17' E 005°35'2019.1
2014-Sep-14 08:29N 42°24' E 006°01'1819.5
2014-Sep-14 07:32N 42°31' E 006°24'1919.3
2014-Sep-14 06:33N 42°37' E 006°48'6319.4
2014-Sep-14 03:19N 43°01' E 008°08'3819.7
2014-Sep-14 01:22N 43°15' E 008°57'6316.5
2014-Sep-13 21:34N 43°35' E 010°18'0 0.0
2014-Sep-13 20:34N 43°35' E 010°18'0 0.0
2014-Sep-13 19:34N 43°35' E 010°18'0 0.0
2014-Sep-13 18:34N 43°35' E 010°18'0 0.0
2014-Sep-13 17:34N 43°35' E 010°18'0 0.0
2014-Sep-13 16:33N 43°35' E 010°18'0 0.0
2014-Sep-13 15:34N 43°35' E 010°18'0 0.0
2014-Sep-13 14:34N 43°35' E 010°18'0 0.0
2014-Sep-13 13:33N 43°35' E 010°18'0 0.0
2014-Sep-13 12:34N 43°35' E 010°18'0 0.0
2014-Sep-13 11:34N 43°35' E 010°18'0 0.0
2014-Sep-13 10:34N 43°35' E 010°18'0 0.0
2014-Sep-13 09:34N 43°35' E 010°18'0 0.0
2014-Sep-13 08:34N 43°35' E 010°18'0 0.0
2014-Sep-13 07:34N 43°35' E 010°18'0 0.0
2014-Sep-13 06:34N 43°35' E 010°18'0 0.0
2014-Sep-13 05:34N 43°35' E 010°18'0 0.0
2014-Sep-13 04:34N 43°35' E 010°18'0 0.0
2014-Sep-13 03:34N 43°35' E 010°18'0 0.0
2014-Sep-13 02:33N 43°35' E 010°18'0 0.0
2014-Sep-13 01:34N 43°35' E 010°18'0 0.0
2014-Sep-13 00:34N 43°35' E 010°18'0 0.0
2014-Sep-12 23:34N 43°35' E 010°18'0 0.0
2014-Sep-12 22:34N 43°35' E 010°18'0 0.0
2014-Sep-12 21:34N 43°35' E 010°18'0 0.0
2014-Sep-12 20:34N 43°35' E 010°18'0 0.0
2014-Sep-12 19:34N 43°35' E 010°18'0 0.0
2014-Sep-12 18:34N 43°35' E 010°18'0 0.0
2014-Sep-12 17:34N 43°35' E 010°18'0 0.0
2014-Sep-12 16:34N 43°35' E 010°18'0 0.0
2014-Sep-12 15:34N 43°35' E 010°18'0 0.0
2014-Sep-12 14:34N 43°35' E 010°18'0 0.0
2014-Sep-12 13:34N 43°35' E 010°18'0 0.0
2014-Sep-12 12:34N 43°35' E 010°18'0 0.0
2014-Sep-12 11:34N 43°35' E 010°18'0 0.0
2014-Sep-12 10:33N 43°35' E 010°18'0 0.0
2014-Sep-12 09:34N 43°35' E 010°18'0 0.0
2014-Sep-12 08:33N 43°35' E 010°18'0 0.0
2014-Sep-12 07:33N 43°35' E 010°18'0 0.0
2014-Sep-12 06:33N 43°35' E 010°18'0 0.0
2014-Sep-12 05:33N 43°35' E 010°18'0 0.0
2014-Sep-12 04:33N 43°35' E 010°18'0 0.0
2014-Sep-12 03:33N 43°35' E 010°18'0 0.0
2014-Sep-12 02:33N 43°35' E 010°18'0 0.0
2014-Sep-12 01:33N 43°35' E 010°18'0 0.0
2014-Sep-12 00:33N 43°35' E 010°18'0 0.0
2014-Sep-11 23:33N 43°35' E 010°18'0 0.0
2014-Sep-11 22:33N 43°35' E 010°18'0 0.0
2014-Sep-11 21:33N 43°35' E 010°18'0 0.0
2014-Sep-11 20:33N 43°35' E 010°18'0 0.0
2014-Sep-11 19:33N 43°35' E 010°18'4 3.7
2014-Sep-11 18:33N 43°32' E 010°16'1716.7
2014-Sep-11 17:34N 43°31' E 009°53'2020.3
2014-Sep-11 16:34N 43°26' E 009°26'2020.1
2014-Sep-11 15:33N 43°20' E 008°59'2120.0
2014-Sep-11 14:31N 43°14' E 008°32'5819.8
2014-Sep-11 11:33N 42°56' E 007°16'2019.7
2014-Sep-11 10:33N 42°50' E 006°50'2019.3
2014-Sep-11 09:31N 42°44' E 006°24'1919.5
2014-Sep-11 08:33N 42°38' E 005°60'2019.9
2014-Sep-11 07:33N 42°29' E 005°36'2019.9
2014-Sep-11 06:33N 42°21' E 005°11'2019.9
2014-Sep-11 05:34N 42°13' E 004°47'2120.4
2014-Sep-11 04:33N 42°03' E 004°22'1919.3
2014-Sep-11 03:33N 41°55' E 003°59'2019.8
2014-Sep-11 02:33N 41°46' E 003°35'2020.1
2014-Sep-11 01:32N 41°37' E 003°10'2020.5
2014-Sep-11 00:33N 41°29' E 002°46'2020.6
2014-Sep-10 23:33N 41°20' E 002°21'8 8.3
2014-Sep-10 22:33N 41°22' E 002°11'0 0.0
2014-Sep-10 21:30N 41°22' E 002°11'0 0.0
2014-Sep-10 20:33N 41°22' E 002°11'0 0.0
2014-Sep-10 19:33N 41°22' E 002°11'2 2.1
2014-Sep-10 18:33N 41°20' E 002°10'1818.1
2014-Sep-10 17:33N 41°03' E 002°02'2121.2
2014-Sep-10 16:33N 40°44' E 001°49'2121.0
2014-Sep-10 15:33N 40°25' E 001°37'2020.4
2014-Sep-10 14:34N 40°07' E 001°24'2020.3
2014-Sep-10 13:33N 39°49' E 001°12'2220.4
2014-Sep-10 12:29N 39°30' E 000°59'10120.5
2014-Sep-10 07:33N 38°02' W 000°06'  
Track history (hours):
 
Tides and Currents Weather Stations Pressure Air Temp Water Temp Dewpoint Dewpoint Depression Visibility Wind Speed Wind Dir Waves Ship Positions

Ikarus

Last reported at 2014-Sep-20 04:33 UTC. Time now 2014-Sep-20 05:52 UTC.
Position N 43°35' E 010°18'.

Length 200 m; draft 6.7 m.

Type: Ship. MMSI: 239513000.

Date/timePositionNaut miles runAvg speedWind from/ knotsBaromVisibWave heightAir tempDewpointWater temp
2014-Sep-20 04:33N 43°35' E 010°18'0 0.0
2014-Sep-20 03:33N 43°35' E 010°18'0 0.0
2014-Sep-20 02:33N 43°35' E 010°18'0 0.0
2014-Sep-20 01:33N 43°35' E 010°18'0 0.0
2014-Sep-20 00:33N 43°35' E 010°18'0 0.0
2014-Sep-19 23:33N 43°35' E 010°18'0 0.0
2014-Sep-19 22:33N 43°35' E 010°18'0 0.0
2014-Sep-19 21:33N 43°35' E 010°18'0 0.0
2014-Sep-19 20:33N 43°35' E 010°18'0 0.0
2014-Sep-19 19:33N 43°35' E 010°18'0 0.0
2014-Sep-19 18:33N 43°35' E 010°18'0 0.0
2014-Sep-19 17:33N 43°35' E 010°18'0 0.0
2014-Sep-19 16:33N 43°35' E 010°18'0 0.0
2014-Sep-19 15:33N 43°35' E 010°18'0 0.0
2014-Sep-19 14:33N 43°35' E 010°18'0 0.0
2014-Sep-19 13:33N 43°35' E 010°18'0 0.0
2014-Sep-19 12:33N 43°35' E 010°18'0 0.0
2014-Sep-19 11:33N 43°35' E 010°18'0 0.0
2014-Sep-19 10:33N 43°35' E 010°18'0 0.0
2014-Sep-19 09:33N 43°35' E 010°18'0 0.0
2014-Sep-19 08:33N 43°35' E 010°18'0 0.0
2014-Sep-19 07:33N 43°35' E 010°18'0 0.0
2014-Sep-19 06:33N 43°35' E 010°18'0 0.0
2014-Sep-19 05:33N 43°35' E 010°18'0 0.0
2014-Sep-19 04:33N 43°35' E 010°18'0 0.0
2014-Sep-19 03:33N 43°35' E 010°18'0 0.0
2014-Sep-19 02:33N 43°35' E 010°18'0 0.0
2014-Sep-19 01:33N 43°35' E 010°18'0 0.0
2014-Sep-19 00:33N 43°35' E 010°18'0 0.0
2014-Sep-18 23:33N 43°35' E 010°18'0 0.0
2014-Sep-18 22:33N 43°35' E 010°18'0 0.0
2014-Sep-18 21:33N 43°35' E 010°18'0 0.0
2014-Sep-18 20:33N 43°35' E 010°18'1 0.6
2014-Sep-18 19:33N 43°34' E 010°18'9 9.1
2014-Sep-18 18:33N 43°27' E 010°10'1919.1
2014-Sep-18 17:33N 43°18' E 009°47'1919.3
2014-Sep-18 16:33N 43°11' E 009°22'2219.1
2014-Sep-18 15:23N 43°04' E 008°54'7919.5
2014-Sep-18 11:22N 42°37' E 007°13'8319.5
2014-Sep-18 07:07N 42°09' E 005°27'1320.2
2014-Sep-18 06:27N 42°05' E 005°10'14117.3
2014-Sep-17 22:20N 41°22' E 002°11'0 0.0
2014-Sep-17 19:17N 41°22' E 002°11'3 3.4
2014-Sep-17 18:31N 41°19' E 002°10'2019.9
2014-Sep-17 17:31N 41°01' E 002°00'2019.0
2014-Sep-17 16:28N 40°43' E 001°48'2020.2
2014-Sep-17 15:28N 40°25' E 001°36'14220.3
2014-Sep-17 08:28N 38°20' E 000°09'1820.0
2014-Sep-17 07:33N 38°05' W 000°04'2020.2
2014-Sep-17 06:33N 37°48' W 000°18'2020.1
2014-Sep-17 05:33N 37°32' W 000°33'2020.2
2014-Sep-17 04:33N 37°18' W 000°52'2020.1
2014-Sep-17 03:33N 37°05' W 001°11'2120.5
2014-Sep-17 02:33N 36°51' W 001°30'18921.1
2014-Sep-16 17:34N 35°59' W 005°16'221 9.2
2014-Sep-15 17:29N 37°16' W 000°58'1415.5
2014-Sep-15 16:34N 37°26' W 000°45'1615.5
2014-Sep-15 15:32N 37°38' W 000°31'1515.6
2014-Sep-15 14:33N 37°50' W 000°20'1615.7
2014-Sep-15 13:33N 38°04' W 000°10'12715.6
2014-Sep-15 05:22N 39°54' E 001°13'3515.5
2014-Sep-15 03:06N 40°25' E 001°34'815.1
2014-Sep-15 02:33N 40°32' E 001°40'55 6.8
2014-Sep-14 18:26N 41°22' E 002°11'1111.0
2014-Sep-14 17:25N 41°22' E 002°26'1920.0
2014-Sep-14 16:29N 41°28' E 002°49'1918.8
2014-Sep-14 15:27N 41°35' E 003°14'2019.5
2014-Sep-14 14:26N 41°42' E 003°38'2120.2
2014-Sep-14 13:24N 41°50' E 004°04'2218.8
2014-Sep-14 12:13N 41°58' E 004°32'1819.5
2014-Sep-14 11:19N 42°04' E 004°54'3318.5
2014-Sep-14 09:32N 42°17' E 005°35'2019.1
2014-Sep-14 08:29N 42°24' E 006°01'1819.5
2014-Sep-14 07:32N 42°31' E 006°24'1919.3
2014-Sep-14 06:33N 42°37' E 006°48'6319.4
2014-Sep-14 03:19N 43°01' E 008°08'3819.7
2014-Sep-14 01:22N 43°15' E 008°57'6316.5
2014-Sep-13 21:34N 43°35' E 010°18'0 0.0
2014-Sep-13 20:34N 43°35' E 010°18'0 0.0
2014-Sep-13 19:34N 43°35' E 010°18'0 0.0
2014-Sep-13 18:34N 43°35' E 010°18'0 0.0
2014-Sep-13 17:34N 43°35' E 010°18'0 0.0
2014-Sep-13 16:33N 43°35' E 010°18'0 0.0
2014-Sep-13 15:34N 43°35' E 010°18'0 0.0
2014-Sep-13 14:34N 43°35' E 010°18'0 0.0
2014-Sep-13 13:33N 43°35' E 010°18'0 0.0
2014-Sep-13 12:34N 43°35' E 010°18'0 0.0
2014-Sep-13 11:34N 43°35' E 010°18'0 0.0
2014-Sep-13 10:34N 43°35' E 010°18'0 0.0
2014-Sep-13 09:34N 43°35' E 010°18'0 0.0
2014-Sep-13 08:34N 43°35' E 010°18'0 0.0
2014-Sep-13 07:34N 43°35' E 010°18'0 0.0
2014-Sep-13 06:34N 43°35' E 010°18'0 0.0
2014-Sep-13 05:34N 43°35' E 010°18'0 0.0
2014-Sep-13 04:34N 43°35' E 010°18'0 0.0
2014-Sep-13 03:34N 43°35' E 010°18'0 0.0
2014-Sep-13 02:33N 43°35' E 010°18'0 0.0
2014-Sep-13 01:34N 43°35' E 010°18'0 0.0
2014-Sep-13 00:34N 43°35' E 010°18'0 0.0
2014-Sep-12 23:34N 43°35' E 010°18'0 0.0
2014-Sep-12 22:34N 43°35' E 010°18'0 0.0
2014-Sep-12 21:34N 43°35' E 010°18'0 0.0
2014-Sep-12 20:34N 43°35' E 010°18'0 0.0
2014-Sep-12 19:34N 43°35' E 010°18'0 0.0
2014-Sep-12 18:34N 43°35' E 010°18'0 0.0
2014-Sep-12 17:34N 43°35' E 010°18'0 0.0
2014-Sep-12 16:34N 43°35' E 010°18'0 0.0
2014-Sep-12 15:34N 43°35' E 010°18'0 0.0
2014-Sep-12 14:34N 43°35' E 010°18'0 0.0
2014-Sep-12 13:34N 43°35' E 010°18'0 0.0
2014-Sep-12 12:34N 43°35' E 010°18'0 0.0
2014-Sep-12 11:34N 43°35' E 010°18'0 0.0
2014-Sep-12 10:33N 43°35' E 010°18'0 0.0
2014-Sep-12 09:34N 43°35' E 010°18'0 0.0
2014-Sep-12 08:33N 43°35' E 010°18'0 0.0
2014-Sep-12 07:33N 43°35' E 010°18'0 0.0
2014-Sep-12 06:33N 43°35' E 010°18'0 0.0
2014-Sep-12 05:33N 43°35' E 010°18'0 0.0
2014-Sep-12 04:33N 43°35' E 010°18'0 0.0
2014-Sep-12 03:33N 43°35' E 010°18'0 0.0
2014-Sep-12 02:33N 43°35' E 010°18'0 0.0
2014-Sep-12 01:33N 43°35' E 010°18'0 0.0
2014-Sep-12 00:33N 43°35' E 010°18'0 0.0
2014-Sep-11 23:33N 43°35' E 010°18'0 0.0
2014-Sep-11 22:33N 43°35' E 010°18'0 0.0
2014-Sep-11 21:33N 43°35' E 010°18'0 0.0
2014-Sep-11 20:33N 43°35' E 010°18'0 0.0
2014-Sep-11 19:33N 43°35' E 010°18'4 3.7
2014-Sep-11 18:33N 43°32' E 010°16'1716.7
2014-Sep-11 17:34N 43°31' E 009°53'2020.3
2014-Sep-11 16:34N 43°26' E 009°26'2020.1
2014-Sep-11 15:33N 43°20' E 008°59'2120.0
2014-Sep-11 14:31N 43°14' E 008°32'5819.8
2014-Sep-11 11:33N 42°56' E 007°16'2019.7
2014-Sep-11 10:33N 42°50' E 006°50'2019.3
2014-Sep-11 09:31N 42°44' E 006°24'1919.5
2014-Sep-11 08:33N 42°38' E 005°60'2019.9
2014-Sep-11 07:33N 42°29' E 005°36'2019.9
2014-Sep-11 06:33N 42°21' E 005°11'2019.9
2014-Sep-11 05:34N 42°13' E 004°47'2120.4
2014-Sep-11 04:33N 42°03' E 004°22'1919.3
2014-Sep-11 03:33N 41°55' E 003°59'2019.8
2014-Sep-11 02:33N 41°46' E 003°35'2020.1
2014-Sep-11 01:32N 41°37' E 003°10'2020.5
2014-Sep-11 00:33N 41°29' E 002°46'2020.6
2014-Sep-10 23:33N 41°20' E 002°21'8 8.3
2014-Sep-10 22:33N 41°22' E 002°11'0 0.0
2014-Sep-10 21:30N 41°22' E 002°11'0 0.0
2014-Sep-10 20:33N 41°22' E 002°11'0 0.0
2014-Sep-10 19:33N 41°22' E 002°11'2 2.1
2014-Sep-10 18:33N 41°20' E 002°10'1818.1
2014-Sep-10 17:33N 41°03' E 002°02'2121.2
2014-Sep-10 16:33N 40°44' E 001°49'2121.0
2014-Sep-10 15:33N 40°25' E 001°37'2020.4
2014-Sep-10 14:34N 40°07' E 001°24'2020.3
2014-Sep-10 13:33N 39°49' E 001°12'2220.4
2014-Sep-10 12:29N 39°30' E 000°59'10120.5
2014-Sep-10 07:33N 38°02' W 000°06'  

Dump ship's entire track history